• Join FlightAware (Why Join?)
  • Login
  • US Flag 
05:42AM EDT


 

Airport Tracker/Info


-or-


 

Live Flight TrackerFlight Track Log ✈ RAX1022 ✈ 01-May-2013 ✈ KBIL - KPDX

Flight Track Log - Related Links

Times and Time Zones

All times are in EDT time to prevent confusion due to time zone crossing. See the RAX1022 flight status page for this flight to view local times or setup timezone preferences in your user account.

Time Position Orientation Groundspeed Altitude Reporting Facility
EDT Latitude Longitude Course Direction KTS MPH feet Rate Location/Type
12:58AM 45.8053 -108.6556 259° West 129 148 7,700  Level Salt Lake Center
12:59AM 45.8039 -108.7075 268° West 131 151 9,200 1,080 Climbing Salt Lake Center
01:00AM 45.7997 -108.7606 264° West 137 158 10,000 360 Climbing Salt Lake Center
01:01AM 45.7917 -108.8419 262° West 191 220 10,000  Level Salt Lake Center
01:02AM 45.7834 -109.0572 270° West  Level FlightAware Approximate
01:02AM 45.7861 -108.9194 264° West 197 227 10,000  Level Salt Lake Center
01:03AM 45.7833 -108.9928 267° West 189 217 10,000  Level Salt Lake Center
01:04AM 45.7806 -109.0650 267° West 185 213 10,000  Level Salt Lake Center
01:05AM 45.7786 -109.1458 268° West 191 220 10,000  Level Salt Lake Center
01:06AM 45.7764 -109.2200 268° West 190 219 10,000  Level Salt Lake Center
01:07AM 45.7686 -109.2939 261° West 191 220 10,000  Level Salt Lake Center
01:08AM 45.7633 -109.3733 265° West 189 217 10,000  Level Salt Lake Center
01:09AM 45.7617 -109.4481 268° West 191 220 10,000  Level Salt Lake Center
01:10AM 45.7600 -109.5236 268° West 193 222 10,000  Level Salt Lake Center
01:11AM 45.7592 -109.5975 269° West 190 219 10,000  Level Salt Lake Center
01:12AM 45.7547 -109.6775 265° West 191 220 10,000  Level Salt Lake Center
01:13AM 45.7481 -109.7517 263° West 191 220 10,000 -60 Level Salt Lake Center
01:14AM 45.7453 -109.8256 267° West 190 219 9,900 -60 Descending Salt Lake Center
01:15AM 45.7422 -109.8969 267° West 189 217 9,900  Level Salt Lake Center
01:16AM 45.7397 -109.9786 268° West 186 214 9,900  Level Salt Lake Center
01:17AM 45.7364 -110.0483 266° West 185 213 9,900  Level Salt Lake Center
01:18AM 45.7342 -110.1267 268° West 185 213 10,000  Climbing Salt Lake Center
01:19AM 45.7242 -110.2014 259° West 184 212 10,000 -60 Level Salt Lake Center
01:20AM 45.7172 -110.2733 262° West 186 214 9,900 -60 Descending Salt Lake Center
01:21AM 45.7125 -110.3442 265° West 188 216 9,900 300 Level Salt Lake Center
01:22AM 45.7069 -110.4219 264° West 188 216 10,600 840 Climbing Salt Lake Center
01:23AM 45.7014 -110.4819 262° West 183 211 11,700 660 Climbing Salt Lake Center
01:24AM 45.6928 -110.5619 261° West 178 205 12,000 120 Climbing Salt Lake Center
01:25AM 45.6878 -110.6222 263° West 177 204 12,000 -60 Level Salt Lake Center
01:26AM 45.6786 -110.6997 260° West 179 206 11,900 -60 Descending Salt Lake Center
01:27AM 45.6642 -110.7792 255° West 182 209 11,900  Level Salt Lake Center
01:28AM 45.6564 -110.8519 261° West 183 211 12,000  Climbing Salt Lake Center
01:29AM 45.6581 -110.9247 272° West 187 215 11,900  Descending Salt Lake Center
01:30AM 45.6897 -110.9819 308° West 187 215 12,000  Climbing Salt Lake Center
01:31AM 45.7211 -111.0394 308° West 184 212 11,900 -60 Descending Salt Lake Center
01:32AM 45.7514 -111.0969 307° West 183 211 11,900  Level Salt Lake Center
01:33AM 45.7764 -111.1564 301° West 182 209 11,900  Level Salt Lake Center
01:34AM 45.7942 -111.2186 292° West 167 192 12,000  Climbing Salt Lake Center
01:35AM 45.7981 -111.2914 274° West 180 207 11,900 -60 Descending Salt Lake Center
01:36AM 45.8028 -111.3819 274° West 185 213 11,900  Level Salt Lake Center
01:37AM 45.8103 -111.4594 278° West 191 220 11,900  Level Salt Lake Center
01:38AM 45.8147 -111.5342 275° West 191 220 11,900  Level Salt Lake Center
01:39AM 45.8217 -111.6078 278° West 189 217 11,900  Level Salt Lake Center
01:40AM 45.8269 -111.6850 276° West 191 220 11,900  Level Salt Lake Center
01:41AM 45.8311 -111.7622 274° West 194 223 11,900 -60 Level Salt Lake Center
01:42AM 45.8383 -111.8364 278° West 191 220 11,800  Descending Salt Lake Center
01:43AM 45.8447 -111.9133 277° West 193 222 12,000 60 Climbing Salt Lake Center
01:44AM 45.8489 -111.9906 274° West 194 223 12,000 -60 Level Salt Lake Center
01:45AM 45.8572 -112.0689 279° West 196 226 11,900 -60 Descending Salt Lake Center
01:46AM 45.8628 -112.1536 275° West 200 230 11,900  Level Salt Lake Center
01:47AM 45.8133 -112.1969 211° Southwest 217 250 11,900 60 Level Salt Lake Center
01:48AM 45.7592 -112.2358 207° Southwest 218 251 12,100  Climbing Salt Lake Center
01:49AM 45.7031 -112.2703 203° Southwest 219 252 11,900 -120 Descending Salt Lake Center
01:51AM 45.6492 -112.3083 206° Southwest 218 251 11,900 -60 Level Salt Lake Center
01:52AM 45.5919 -112.3436 203° Southwest 215 247 11,800  Descending Salt Lake Center
01:53AM 45.5358 -112.3681 197° South 218 251 11,900  Climbing Salt Lake Center
01:54AM 45.4756 -112.4044 203° Southwest 215 247 11,900  Level Salt Lake Center
01:55AM 45.4250 -112.4386 205° Southwest 211 243 12,000  Climbing Salt Lake Center
01:56AM 45.3744 -112.4764 208° Southwest 212 244 11,900 -60 Descending Salt Lake Center
01:57AM 45.3169 -112.5189 207° Southwest 213 245 11,900  Level Salt Lake Center
01:58AM 45.2603 -112.5364 192° South 217 250 11,900  Level Salt Lake Center
01:59AM 45.2414 -112.6086 250° West 212 244 11,900  Level Salt Lake Center
02:00AM 45.2283 -112.6947 258° West 204 235 11,900  Level Salt Lake Center
02:01AM 45.2119 -112.7711 253° West 203 234 11,900 60 Level Salt Lake Center
02:03AM 45.1867 -112.9283 257° West 200 230 12,100  Climbing Salt Lake Center
02:04AM 45.1722 -113.0514 261° West 230 265 11,900 -60 Descending Salt Lake Center
02:06AM 45.1553 -113.1536 257° West  Level FlightAware Approximate
02:12AM 45.0703 -113.7325 306° West 216 249 11,900  Level Salt Lake Center
02:13AM 45.0686 -113.7122 259° West  Level FlightAware Approximate
02:14AM 45.0575 -113.7923 259° West  Level FlightAware Approximate
02:14AM 45.0581 -113.8261 260° West 218 251 11,900  Level Salt Lake Center
02:15AM 45.0463 -113.8724 259° West  Level FlightAware Approximate
02:15AM 45.0503 -113.9056 262° West 216 249 11,800  Level Salt Lake Center
02:16AM 45.0351 -113.9524 259° West  Level FlightAware Approximate
02:16AM 45.0369 -113.9914 258° West 215 247 11,900  Level Salt Lake Center
02:17AM 45.0239 -114.0324 259° West  Level FlightAware Approximate
02:18AM 45.0290 -114.1073 306° West  Level FlightAware Approximate
02:18AM 45.0425 -114.1394 273° West 186 214 12,000  Level Salt Lake Center
02:19AM 45.0736 -114.2031 305° West 202 232 12,000 -60 Level Salt Lake Center
02:20AM 45.1069 -114.2753 303° West 203 234 11,900  Descending Salt Lake Center
02:22AM 45.1742 -114.4034 307° West  Level FlightAware Approximate
02:24AM 45.2461 -114.5308 307° West 215 247 12,000  Level Salt Lake Center
02:25AM 45.2778 -114.5933 306° West 206 237 12,000  Level Salt Lake Center
02:26AM 45.3119 -114.6519 310° West 203 234 12,000  Level Salt Lake Center
02:27AM 45.3481 -114.7250 305° West 203 234 12,000  Level Salt Lake Center
02:28AM 45.3786 -114.7836 307° West 203 234 12,000  Level Salt Lake Center
02:29AM 45.4144 -114.8658 307° West  Level FlightAware Approximate
02:29AM 45.4133 -114.8589 303° West 204 235 12,000  Level Salt Lake Center
02:30AM 45.4472 -114.9233 307° West 203 234 11,900 -60 Descending Salt Lake Center
02:31AM 45.4778 -114.9861 305° West 202 232 11,900  Level Salt Lake Center
02:32AM 45.5086 -115.0489 305° West 202 232 11,900  Level Salt Lake Center
02:33AM 45.5511 -115.1369 305° West 203 234 11,900  Level Salt Lake Center
02:34AM 45.5822 -115.1972 306° West 204 235 11,900  Level Seattle Center
02:35AM 45.6114 -115.2614 303° West 204 235 11,900 -60 Level Seattle Center
02:36AM 45.6306 -115.3325 291° West 209 241 11,800  Descending Seattle Center
02:37AM 45.6322 -115.4231 272° West 208 239 11,900  Climbing Seattle Center
02:38AM 45.6319 -115.4836 270° West 201 231 11,800  Descending Seattle Center
02:39AM 45.6344 -115.5664 273° West 206 237 11,900  Climbing Seattle Center
02:40AM 45.6361 -115.6592 272° West 212 244 11,900  Level Seattle Center
02:41AM 45.6389 -115.7522 272° West 213 245 11,900  Level Seattle Center
02:42AM 45.6381 -115.8325 269° West 209 241 11,900  Level Seattle Center
02:43AM 45.6358 -115.9150 268° West 207 238 11,900  Level Seattle Center
02:44AM 45.6392 -115.9978 273° West 206 237 12,000  Climbing Seattle Center
02:45AM 45.6386 -116.0767 269° West 206 237 11,900 -60 Descending Seattle Center
02:46AM 45.6417 -116.1536 273° West 207 238 11,900  Level Seattle Center
02:47AM 45.6453 -116.2322 274° West 206 237 11,900  Level Seattle Center
02:48AM 45.6506 -116.3233 275° West 209 241 11,900  Level Seattle Center
02:49AM 45.6528 -116.4053 272° West 207 238 11,900  Level Seattle Center
02:50AM 45.6569 -116.4875 274° West 208 239 11,900  Level Seattle Center
02:51AM 45.6561 -116.5692 269° West 208 239 11,900  Level Seattle Center
02:52AM 45.6558 -116.6506 270° West 206 237 11,900  Level Seattle Center
02:53AM 45.6575 -116.7289 272° West 206 237 11,900  Level Seattle Center
02:54AM 45.6583 -116.8200 271° West 206 237 11,900  Level Seattle Center
02:55AM 45.6603 -116.8956 272° West 203 234 11,900 -180 Level Seattle Center
02:56AM 45.6600 -116.9750 270° West 205 236 11,600 -420 Descending Seattle Center
02:57AM 45.6597 -117.0558 270° West 209 241 11,100 -540 Descending Seattle Center
02:58AM 45.6594 -117.1494 270° West 217 250 10,600 -480 Descending Seattle Center
02:59AM 45.6622 -117.2406 273° West 223 257 10,200 -360 Descending Seattle Center
03:00AM 45.6636 -117.3244 271° West 222 255 9,900 -180 Descending Seattle Center
03:01AM 45.6656 -117.4178 272° West 216 249 9,900  Level Seattle Center
03:02AM 45.6675 -117.4939 272° West 206 237 10,000  Climbing Seattle Center
03:03AM 45.6678 -117.5703 270° West 203 234 10,000  Level Seattle Center
03:04AM 45.6664 -117.6472 269° West 203 234 10,000  Level Seattle Center
03:05AM 45.6639 -117.7294 268° West 203 234 10,000 -60 Level Seattle Center
03:06AM 45.6644 -117.8103 271° West 203 234 9,900 -60 Descending Seattle Center
03:07AM 45.6653 -117.8817 271° West 203 234 9,900  Level Seattle Center
03:08AM 45.6619 -117.9778 267° West 203 234 9,900  Level Seattle Center
03:09AM 45.6575 -118.0578 265° West 203 234 9,900  Level Seattle Center
03:10AM 45.6522 -118.1381 265° West 203 234 10,000  Climbing Seattle Center
03:11AM 45.6461 -118.2167 264° West 201 231 10,000  Level Seattle Center
03:12AM 45.6408 -118.2972 265° West 202 232 10,000  Level Seattle Center
03:13AM 45.6342 -118.3778 263° West 204 235 10,000  Level Seattle Center
03:14AM 45.6217 -118.4575 257° West 206 237 10,000  Level Seattle Center
03:15AM 45.6072 -118.5483 257° West 201 231 10,000  Level Seattle Center
03:16AM 45.6069 -118.6286 270° West 200 230 10,000  Level Seattle Center
03:17AM 45.6064 -118.7108 269° West 203 234 10,000  Level Seattle Center
03:18AM 45.6011 -118.7914 265° West 206 237 10,000  Level Seattle Center
03:19AM 45.5961 -118.8714 265° West 204 235 10,000  Level Seattle Center
03:20AM 45.5878 -118.9511 262° West 204 235 10,000  Level Seattle Center
03:21AM 45.5828 -119.0325 265° West 204 235 10,000  Level Seattle Center
03:22AM 45.5772 -119.1139 264° West 207 238 10,000  Level Seattle Center
03:23AM 45.5736 -119.1942 266° West 205 236 10,000  Level Seattle Center
03:24AM 45.5694 -119.2733 266° West 203 234 10,000  Level Seattle Center
03:25AM 45.5628 -119.3514 263° West 202 232 10,000  Level Seattle Center
03:26AM 45.5553 -119.4300 262° West 201 231 10,000  Level Seattle Center
03:27AM 45.5472 -119.5092 262° West 202 232 10,000  Level Seattle Center
03:28AM 45.5406 -119.5867 263° West 201 231 10,000 -60 Level Seattle Center
03:29AM 45.5394 -119.6656 269° West 199 229 9,900 -60 Descending Seattle Center
03:30AM 45.5328 -119.7422 263° West 198 228 9,900  Level Seattle Center
03:31AM 45.5286 -119.8217 266° West 199 229 9,900  Level Seattle Center
03:32AM 45.5314 -119.9006 273° West 199 229 9,900  Level Seattle Center
03:33AM 45.5314 -119.9806 270° West 202 232 10,000  Climbing Seattle Center
03:34AM 45.5275 -120.0600 266° West 203 234 9,900 -60 Descending Seattle Center
03:35AM 45.5319 -120.1392 275° West 202 232 9,900  Level Seattle Center
03:36AM 45.5394 -120.2178 278° West 202 232 10,000  Climbing Seattle Center
03:37AM 45.5542 -120.2925 286° West 202 232 9,900 -60 Descending Seattle Center
03:38AM 45.5561 -120.3708 272° West 197 227 9,900  Level Seattle Center
03:39AM 45.5564 -120.4522 270° West 198 228 9,900  Level Seattle Center
03:40AM 45.5564 -120.5347 270° West 203 234 9,900  Level Seattle Center
03:41AM 45.5564 -120.6147 270° West 205 236 9,900  Level Seattle Center
03:42AM 45.5558 -120.6950 269° West 204 235 9,900  Level Seattle Center
03:43AM 45.5567 -120.7753 271° West 204 235 9,900  Level Seattle Center
03:44AM 45.5569 -120.8553 270° West 204 235 9,900  Level Seattle Center
03:45AM 45.5581 -120.9367 271° West 204 235 9,900  Level Seattle Center
03:46AM 45.5575 -121.0189 269° West 205 236 9,900  Level Seattle Center
03:47AM 45.5622 -121.0994 275° West 206 237 9,900  Level Seattle Center
03:48AM 45.5653 -121.1817 273° West 207 238 9,900 -60 Level Seattle Center
03:49AM 45.5689 -121.2653 274° West 209 241 9,800  Descending Seattle Center
03:50AM 45.5778 -121.3469 279° West 210 242 10,000 60 Climbing Seattle Center
03:51AM 45.5828 -121.4117 276° West 206 237 9,900  Descending Seattle Center
03:51AM 45.5819 -121.4247 265° West 204 235 10,000  Climbing Seattle Center
03:52AM 45.5844 -121.4700 275° West 205 236 9,900  Descending Seattle Center
03:52AM 45.5817 -121.5069 264° West 205 236 10,000  Climbing Seattle Center
03:53AM 45.5819 -121.5514 271° West 209 241 9,900 -120 Descending Seattle Center
03:53AM 45.5811 -121.5903 268° West 209 241 9,900 -300 Level Seattle Center
03:54AM 45.5778 -121.6339 264° West 211 243 9,600 -540 Descending Seattle Center
03:54AM 45.5756 -121.6753 266° West 212 244 9,400 -600 Descending Seattle Center
03:55AM 45.5769 -121.7239 272° West 224 258 9,000 -1,020 Descending Seattle Center
03:55AM 45.5764 -121.7803 269° West 220 253 8,400 -900 Descending Seattle Center
03:56AM 45.5750 -121.8178 267° West 226 260 8,100 -840 Descending Seattle Center
03:56AM 45.5736 -121.8711 268° West 225 259 7,600 -900 Descending Seattle Center
03:57AM 45.5722 -121.9086 267° West 229 264 7,200 -720 Descending Seattle Center
03:57AM 45.5706 -121.9439 266° West 228 262 6,900 -840 Descending Seattle Center
03:58AM 45.5675 -122.0003 266° West 228 262 6,400 -900 Descending Seattle Center
03:58AM 45.5700 -122.0367 276° West 232 267 6,000 -960 Descending Seattle Center
03:59AM 45.5631 -122.0947 260° West 229 264 5,400 -720 Descending Seattle Center
03:59AM 45.5636 -122.1261 271° West 229 264 5,300 -180 Descending Seattle Center
04:00AM 45.5553 -122.1939 260° West 216 249 5,200 -600 Descending Seattle Center
04:00AM 45.5550 -122.2269 269° West 218 251 4,700 -1,200 Descending Seattle Center
04:01AM 45.5469 -122.2808 258° West 215 247 4,000 -900 Descending Seattle Center
04:01AM 45.5469 -122.3125 270° West 218 251 3,800 -300 Descending Seattle Center
04:02AM 45.5408 -122.3572 259° West 198 228 3,700 -420 Descending Seattle Center
04:02AM 45.5406 -122.3839 269° West 192 221 3,400 -1,140 Descending Seattle Center
04:03AM 45.5372 -122.4236 263° West 160 184 2,600 -1,020 Descending Seattle Center
04:03AM 45.5386 -122.4458 275° West 167 192 2,400 -1,140 Descending Seattle Center
04:04AM 45.5486 -122.4806 292° West 151 174 1,500 -1,200 Descending Seattle Center
04:04AM 45.5578 -122.4992 305° West 161 185 1,200 -780 Descending Seattle Center
04:05AM 45.5658 -122.5231 296° West 127 146 800 -720 Descending Seattle Center
04:05AM 45.5769 -122.5431 308° West 146 168 500 -600 Descending Seattle Center
04:06AM 45.5806 -122.5633 284° West 111 128 200 -540 Descending Seattle Center